sensor_id;sensor_type;location;lat;lon;timestamp;P1;durP1;ratioP1;P2;durP2;ratioP2
59786;SDS011;45672;51.612;5.536;2023-04-03T00:01:06;10.43;;;6.78;;
59786;SDS011;45672;51.612;5.536;2023-04-03T00:03:31;7.53;;;6.45;;
59786;SDS011;45672;51.612;5.536;2023-04-03T00:05:57;10.90;;;6.97;;
59786;SDS011;45672;51.612;5.536;2023-04-03T00:08:22;7.57;;;6.75;;
59786;SDS011;45672;51.612;5.536;2023-04-03T00:10:48;7.80;;;6.40;;
59786;SDS011;45672;51.612;5.536;2023-04-03T00:13:13;8.95;;;6.53;;
59786;SDS011;45672;51.612;5.536;2023-04-03T00:15:39;10.45;;;6.50;;
59786;SDS011;45672;51.612;5.536;2023-04-03T00:18:05;9.32;;;7.38;;
59786;SDS011;45672;51.612;5.536;2023-04-03T00:20:31;6.90;;;6.20;;
59786;SDS011;45672;51.612;5.536;2023-04-03T00:22:58;7.82;;;7.10;;
59786;SDS011;45672;51.612;5.536;2023-04-03T00:25:23;7.95;;;6.53;;
59786;SDS011;45672;51.612;5.536;2023-04-03T00:27:49;9.07;;;6.63;;
59786;SDS011;45672;51.612;5.536;2023-04-03T00:30:16;8.25;;;6.68;;
59786;SDS011;45672;51.612;5.536;2023-04-03T00:32:42;8.55;;;6.57;;
59786;SDS011;45672;51.612;5.536;2023-04-03T00:35:08;9.95;;;7.15;;
59786;SDS011;45672;51.612;5.536;2023-04-03T00:37:34;9.48;;;6.88;;
59786;SDS011;45672;51.612;5.536;2023-04-03T00:39:59;8.35;;;6.85;;
59786;SDS011;45672;51.612;5.536;2023-04-03T00:42:25;8.63;;;6.72;;
59786;SDS011;45672;51.612;5.536;2023-04-03T00:47:21;8.00;;;6.80;;
59786;SDS011;45672;51.612;5.536;2023-04-03T00:49:48;8.90;;;6.85;;
59786;SDS011;45672;51.612;5.536;2023-04-03T00:52:15;7.53;;;6.75;;
59786;SDS011;45672;51.612;5.536;2023-04-03T00:54:42;10.00;;;7.07;;
59786;SDS011;45672;51.612;5.536;2023-04-03T00:57:11;9.05;;;6.88;;
59786;SDS011;45672;51.612;5.536;2023-04-03T00:59:38;7.95;;;7.13;;
59786;SDS011;45672;51.612;5.536;2023-04-03T01:02:09;8.80;;;6.85;;
59786;SDS011;45672;51.612;5.536;2023-04-03T01:04:35;7.90;;;6.93;;
59786;SDS011;45672;51.612;5.536;2023-04-03T01:07:07;7.72;;;6.95;;
59786;SDS011;45672;51.612;5.536;2023-04-03T01:09:35;7.45;;;6.47;;
59786;SDS011;45672;51.612;5.536;2023-04-03T01:12:35;8.32;;;7.05;;
59786;SDS011;45672;51.612;5.536;2023-04-03T01:17:38;11.50;;;7.18;;
59786;SDS011;45672;51.612;5.536;2023-04-03T01:25:47;8.88;;;7.00;;
59786;SDS011;45672;51.612;5.536;2023-04-03T01:28:19;8.00;;;6.43;;
59786;SDS011;45672;51.612;5.536;2023-04-03T01:30:51;8.68;;;6.22;;
59786;SDS011;45672;51.612;5.536;2023-04-03T01:33:27;8.75;;;6.55;;
59786;SDS011;45672;51.612;5.536;2023-04-03T01:35:53;8.27;;;6.63;;
59786;SDS011;45672;51.612;5.536;2023-04-03T01:38:18;10.07;;;6.00;;
59786;SDS011;45672;51.612;5.536;2023-04-03T01:40:44;6.25;;;5.30;;
59786;SDS011;45672;51.612;5.536;2023-04-03T01:43:09;6.97;;;6.30;;
59786;SDS011;45672;51.612;5.536;2023-04-03T01:45:35;9.80;;;6.50;;
59786;SDS011;45672;51.612;5.536;2023-04-03T01:48:00;8.77;;;6.20;;
59786;SDS011;45672;51.612;5.536;2023-04-03T01:50:25;8.02;;;6.60;;
59786;SDS011;45672;51.612;5.536;2023-04-03T01:52:51;8.85;;;6.25;;
59786;SDS011;45672;51.612;5.536;2023-04-03T01:55:16;6.78;;;6.10;;
59786;SDS011;45672;51.612;5.536;2023-04-03T01:57:41;7.35;;;5.68;;
59786;SDS011;45672;51.612;5.536;2023-04-03T02:00:07;6.85;;;6.13;;
59786;SDS011;45672;51.612;5.536;2023-04-03T02:02:33;6.47;;;5.88;;
59786;SDS011;45672;51.612;5.536;2023-04-03T02:04:58;7.05;;;6.07;;
59786;SDS011;45672;51.612;5.536;2023-04-03T02:07:23;7.65;;;5.68;;
59786;SDS011;45672;51.612;5.536;2023-04-03T02:09:49;6.28;;;5.65;;
59786;SDS011;45672;51.612;5.536;2023-04-03T02:12:15;6.82;;;5.70;;
59786;SDS011;45672;51.612;5.536;2023-04-03T02:14:40;5.72;;;4.97;;
59786;SDS011;45672;51.612;5.536;2023-04-03T02:17:06;7.25;;;5.15;;
59786;SDS011;45672;51.612;5.536;2023-04-03T02:19:34;6.75;;;5.22;;
59786;SDS011;45672;51.612;5.536;2023-04-03T02:22:01;8.07;;;5.05;;
59786;SDS011;45672;51.612;5.536;2023-04-03T02:24:27;9.55;;;5.05;;
59786;SDS011;45672;51.612;5.536;2023-04-03T02:26:52;7.38;;;5.18;;
59786;SDS011;45672;51.612;5.536;2023-04-03T02:29:18;10.65;;;5.18;;
59786;SDS011;45672;51.612;5.536;2023-04-03T02:31:44;9.98;;;5.00;;
59786;SDS011;45672;51.612;5.536;2023-04-03T02:34:09;5.13;;;4.63;;
59786;SDS011;45672;51.612;5.536;2023-04-03T02:36:35;5.97;;;3.72;;
59786;SDS011;45672;51.612;5.536;2023-04-03T02:39:00;5.38;;;4.38;;
59786;SDS011;45672;51.612;5.536;2023-04-03T02:41:25;4.57;;;4.20;;
59786;SDS011;45672;51.612;5.536;2023-04-03T02:46:23;5.68;;;4.35;;
59786;SDS011;45672;51.612;5.536;2023-04-03T02:48:48;4.43;;;4.03;;
59786;SDS011;45672;51.612;5.536;2023-04-03T02:51:14;7.55;;;4.38;;
59786;SDS011;45672;51.612;5.536;2023-04-03T02:53:39;4.13;;;3.83;;
59786;SDS011;45672;51.612;5.536;2023-04-03T02:56:05;6.70;;;4.55;;
59786;SDS011;45672;51.612;5.536;2023-04-03T02:58:30;5.47;;;4.20;;
59786;SDS011;45672;51.612;5.536;2023-04-03T03:00:55;6.93;;;4.40;;
59786;SDS011;45672;51.612;5.536;2023-04-03T03:03:21;5.68;;;3.95;;
59786;SDS011;45672;51.612;5.536;2023-04-03T03:05:46;4.75;;;3.92;;
59786;SDS011;45672;51.612;5.536;2023-04-03T03:08:13;5.40;;;4.22;;
59786;SDS011;45672;51.612;5.536;2023-04-03T03:10:38;5.88;;;4.38;;
59786;SDS011;45672;51.612;5.536;2023-04-03T03:13:03;9.25;;;4.45;;
59786;SDS011;45672;51.612;5.536;2023-04-03T03:15:29;4.53;;;3.67;;
59786;SDS011;45672;51.612;5.536;2023-04-03T03:17:54;8.27;;;3.42;;
59786;SDS011;45672;51.612;5.536;2023-04-03T03:20:20;5.85;;;3.70;;
59786;SDS011;45672;51.612;5.536;2023-04-03T03:22:46;4.78;;;4.22;;
59786;SDS011;45672;51.612;5.536;2023-04-03T03:25:11;7.90;;;4.00;;
59786;SDS011;45672;51.612;5.536;2023-04-03T03:27:36;8.07;;;3.28;;
59786;SDS011;45672;51.612;5.536;2023-04-03T03:30:02;5.07;;;3.65;;
59786;SDS011;45672;51.612;5.536;2023-04-03T03:32:27;5.82;;;3.50;;
59786;SDS011;45672;51.612;5.536;2023-04-03T03:34:53;9.07;;;3.45;;
59786;SDS011;45672;51.612;5.536;2023-04-03T03:37:18;3.67;;;3.22;;
59786;SDS011;45672;51.612;5.536;2023-04-03T03:39:44;5.05;;;3.50;;
59786;SDS011;45672;51.612;5.536;2023-04-03T03:42:09;3.60;;;3.25;;
59786;SDS011;45672;51.612;5.536;2023-04-03T03:44:34;6.88;;;3.22;;
59786;SDS011;45672;51.612;5.536;2023-04-03T03:47:00;3.63;;;2.72;;
59786;SDS011;45672;51.612;5.536;2023-04-03T03:49:25;3.50;;;3.20;;
59786;SDS011;45672;51.612;5.536;2023-04-03T03:51:51;7.82;;;3.25;;
59786;SDS011;45672;51.612;5.536;2023-04-03T03:54:16;4.70;;;3.33;;
59786;SDS011;45672;51.612;5.536;2023-04-03T03:56:42;4.15;;;3.17;;
59786;SDS011;45672;51.612;5.536;2023-04-03T03:59:07;3.90;;;3.38;;
59786;SDS011;45672;51.612;5.536;2023-04-03T04:01:32;5.55;;;3.15;;
59786;SDS011;45672;51.612;5.536;2023-04-03T04:03:58;8.32;;;3.90;;
59786;SDS011;45672;51.612;5.536;2023-04-03T04:06:23;6.40;;;3.47;;
59786;SDS011;45672;51.612;5.536;2023-04-03T04:08:49;3.30;;;2.88;;
59786;SDS011;45672;51.612;5.536;2023-04-03T04:11:14;3.88;;;3.40;;
59786;SDS011;45672;51.612;5.536;2023-04-03T04:13:40;4.88;;;3.33;;
59786;SDS011;45672;51.612;5.536;2023-04-03T04:16:06;3.92;;;3.15;;
59786;SDS011;45672;51.612;5.536;2023-04-03T04:18:32;5.93;;;3.55;;
59786;SDS011;45672;51.612;5.536;2023-04-03T04:20:57;5.32;;;3.10;;
59786;SDS011;45672;51.612;5.536;2023-04-03T04:23:22;6.20;;;3.28;;
59786;SDS011;45672;51.612;5.536;2023-04-03T04:25:48;4.90;;;3.90;;
59786;SDS011;45672;51.612;5.536;2023-04-03T04:28:14;6.35;;;3.50;;
59786;SDS011;45672;51.612;5.536;2023-04-03T04:30:40;7.32;;;3.30;;
59786;SDS011;45672;51.612;5.536;2023-04-03T04:33:05;4.25;;;3.30;;
59786;SDS011;45672;51.612;5.536;2023-04-03T04:35:31;5.85;;;3.20;;
59786;SDS011;45672;51.612;5.536;2023-04-03T04:37:57;5.18;;;3.70;;
59786;SDS011;45672;51.612;5.536;2023-04-03T04:40:22;7.60;;;3.45;;
59786;SDS011;45672;51.612;5.536;2023-04-03T04:42:48;3.33;;;3.03;;
59786;SDS011;45672;51.612;5.536;2023-04-03T04:45:13;7.47;;;3.47;;
59786;SDS011;45672;51.612;5.536;2023-04-03T04:47:39;7.40;;;3.35;;
59786;SDS011;45672;51.612;5.536;2023-04-03T04:50:05;5.07;;;3.30;;
59786;SDS011;45672;51.612;5.536;2023-04-03T04:52:31;3.92;;;3.22;;
59786;SDS011;45672;51.612;5.536;2023-04-03T04:54:57;3.67;;;3.10;;
59786;SDS011;45672;51.612;5.536;2023-04-03T04:57:22;4.25;;;3.13;;
59786;SDS011;45672;51.612;5.536;2023-04-03T04:59:47;5.78;;;3.85;;
59786;SDS011;45672;51.612;5.536;2023-04-03T05:02:12;4.53;;;3.38;;
59786;SDS011;45672;51.612;5.536;2023-04-03T05:04:38;4.80;;;3.40;;
59786;SDS011;45672;51.612;5.536;2023-04-03T05:07:03;5.80;;;3.33;;
59786;SDS011;45672;51.612;5.536;2023-04-03T05:09:28;6.70;;;3.28;;
59786;SDS011;45672;51.612;5.536;2023-04-03T05:11:54;6.03;;;3.25;;
59786;SDS011;45672;51.612;5.536;2023-04-03T05:14:19;5.90;;;2.90;;
59786;SDS011;45672;51.612;5.536;2023-04-03T05:16:44;3.97;;;2.83;;
59786;SDS011;45672;51.612;5.536;2023-04-03T05:19:10;3.25;;;2.95;;
59786;SDS011;45672;51.612;5.536;2023-04-03T05:21:35;5.72;;;2.83;;
59786;SDS011;45672;51.612;5.536;2023-04-03T05:24:01;5.63;;;3.05;;
59786;SDS011;45672;51.612;5.536;2023-04-03T05:26:28;8.15;;;2.70;;
59786;SDS011;45672;51.612;5.536;2023-04-03T05:28:54;3.53;;;2.90;;
59786;SDS011;45672;51.612;5.536;2023-04-03T05:31:20;3.50;;;2.95;;
59786;SDS011;45672;51.612;5.536;2023-04-03T05:33:45;6.05;;;2.88;;
59786;SDS011;45672;51.612;5.536;2023-04-03T05:36:11;5.43;;;3.20;;
59786;SDS011;45672;51.612;5.536;2023-04-03T05:38:37;6.40;;;2.80;;
59786;SDS011;45672;51.612;5.536;2023-04-03T05:41:03;7.72;;;3.20;;
59786;SDS011;45672;51.612;5.536;2023-04-03T05:43:28;4.13;;;3.03;;
59786;SDS011;45672;51.612;5.536;2023-04-03T05:45:54;2.92;;;2.67;;
59786;SDS011;45672;51.612;5.536;2023-04-03T05:48:19;3.30;;;2.67;;
59786;SDS011;45672;51.612;5.536;2023-04-03T05:50:45;5.57;;;3.20;;
59786;SDS011;45672;51.612;5.536;2023-04-03T05:53:14;5.30;;;2.72;;
59786;SDS011;45672;51.612;5.536;2023-04-03T05:55:45;4.85;;;2.75;;
59786;SDS011;45672;51.612;5.536;2023-04-03T05:58:10;5.55;;;2.25;;
59786;SDS011;45672;51.612;5.536;2023-04-03T06:00:36;3.42;;;2.67;;
59786;SDS011;45672;51.612;5.536;2023-04-03T06:03:01;4.47;;;2.67;;
59786;SDS011;45672;51.612;5.536;2023-04-03T06:05:27;6.07;;;3.08;;
59786;SDS011;45672;51.612;5.536;2023-04-03T06:07:52;8.43;;;2.70;;
59786;SDS011;45672;51.612;5.536;2023-04-03T06:10:18;4.93;;;2.70;;
59786;SDS011;45672;51.612;5.536;2023-04-03T06:12:45;6.82;;;2.65;;
59786;SDS011;45672;51.612;5.536;2023-04-03T06:15:10;6.47;;;2.55;;
59786;SDS011;45672;51.612;5.536;2023-04-03T06:17:36;4.60;;;2.45;;
59786;SDS011;45672;51.612;5.536;2023-04-03T06:20:03;4.45;;;2.47;;
59786;SDS011;45672;51.612;5.536;2023-04-03T06:22:29;3.45;;;2.30;;
59786;SDS011;45672;51.612;5.536;2023-04-03T06:24:55;4.80;;;2.35;;
59786;SDS011;45672;51.612;5.536;2023-04-03T06:27:21;2.13;;;2.00;;
59786;SDS011;45672;51.612;5.536;2023-04-03T06:29:47;5.05;;;2.53;;
59786;SDS011;45672;51.612;5.536;2023-04-03T06:32:13;3.30;;;2.22;;
59786;SDS011;45672;51.612;5.536;2023-04-03T06:34:39;3.15;;;2.55;;
59786;SDS011;45672;51.612;5.536;2023-04-03T06:37:05;5.15;;;2.63;;
59786;SDS011;45672;51.612;5.536;2023-04-03T06:39:31;3.15;;;2.30;;
59786;SDS011;45672;51.612;5.536;2023-04-03T06:41:56;4.60;;;2.63;;
59786;SDS011;45672;51.612;5.536;2023-04-03T06:44:21;3.35;;;2.30;;
59786;SDS011;45672;51.612;5.536;2023-04-03T06:46:46;3.60;;;2.20;;
59786;SDS011;45672;51.612;5.536;2023-04-03T06:49:12;4.05;;;2.22;;
59786;SDS011;45672;51.612;5.536;2023-04-03T06:51:37;2.08;;;1.45;;
59786;SDS011;45672;51.612;5.536;2023-04-03T06:54:03;2.67;;;2.08;;
59786;SDS011;45672;51.612;5.536;2023-04-03T06:56:30;3.50;;;2.58;;
59786;SDS011;45672;51.612;5.536;2023-04-03T06:58:56;3.75;;;2.42;;
59786;SDS011;45672;51.612;5.536;2023-04-03T07:01:23;3.72;;;2.35;;
59786;SDS011;45672;51.612;5.536;2023-04-03T07:03:51;5.32;;;2.22;;
59786;SDS011;45672;51.612;5.536;2023-04-03T07:06:16;2.53;;;2.00;;
59786;SDS011;45672;51.612;5.536;2023-04-03T07:08:43;5.53;;;2.00;;
59786;SDS011;45672;51.612;5.536;2023-04-03T07:11:09;3.80;;;1.98;;
59786;SDS011;45672;51.612;5.536;2023-04-03T07:13:35;4.60;;;1.80;;
59786;SDS011;45672;51.612;5.536;2023-04-03T07:16:01;4.68;;;1.80;;
59786;SDS011;45672;51.612;5.536;2023-04-03T07:18:28;2.20;;;1.63;;
59786;SDS011;45672;51.612;5.536;2023-04-03T07:20:53;4.07;;;2.20;;
59786;SDS011;45672;51.612;5.536;2023-04-03T07:23:19;7.47;;;2.15;;
59786;SDS011;45672;51.612;5.536;2023-04-03T07:25:45;4.97;;;1.88;;
59786;SDS011;45672;51.612;5.536;2023-04-03T07:28:11;5.32;;;2.00;;
59786;SDS011;45672;51.612;5.536;2023-04-03T07:30:44;3.72;;;1.88;;
59786;SDS011;45672;51.612;5.536;2023-04-03T07:33:11;3.42;;;1.90;;
59786;SDS011;45672;51.612;5.536;2023-04-03T07:35:38;5.78;;;2.08;;
59786;SDS011;45672;51.612;5.536;2023-04-03T07:38:05;4.88;;;2.05;;
59786;SDS011;45672;51.612;5.536;2023-04-03T07:40:31;3.47;;;1.80;;
59786;SDS011;45672;51.612;5.536;2023-04-03T07:42:56;4.75;;;1.83;;
59786;SDS011;45672;51.612;5.536;2023-04-03T07:45:22;4.03;;;2.17;;
59786;SDS011;45672;51.612;5.536;2023-04-03T07:47:48;3.90;;;2.03;;
59786;SDS011;45672;51.612;5.536;2023-04-03T07:50:14;5.40;;;1.95;;
59786;SDS011;45672;51.612;5.536;2023-04-03T07:52:40;5.63;;;2.25;;
59786;SDS011;45672;51.612;5.536;2023-04-03T07:55:06;4.03;;;1.85;;
59786;SDS011;45672;51.612;5.536;2023-04-03T07:57:31;3.20;;;2.05;;
59786;SDS011;45672;51.612;5.536;2023-04-03T07:59:56;2.72;;;2.30;;
59786;SDS011;45672;51.612;5.536;2023-04-03T08:02:22;3.88;;;1.90;;
59786;SDS011;45672;51.612;5.536;2023-04-03T08:04:47;4.13;;;1.83;;
59786;SDS011;45672;51.612;5.536;2023-04-03T08:07:12;3.50;;;1.75;;
59786;SDS011;45672;51.612;5.536;2023-04-03T08:09:38;5.22;;;1.92;;
59786;SDS011;45672;51.612;5.536;2023-04-03T08:12:03;3.85;;;1.92;;
59786;SDS011;45672;51.612;5.536;2023-04-03T08:14:30;2.38;;;1.85;;
59786;SDS011;45672;51.612;5.536;2023-04-03T08:16:59;3.28;;;1.73;;
59786;SDS011;45672;51.612;5.536;2023-04-03T08:19:25;2.13;;;1.65;;
59786;SDS011;45672;51.612;5.536;2023-04-03T08:21:51;5.28;;;2.25;;
59786;SDS011;45672;51.612;5.536;2023-04-03T08:24:16;3.17;;;1.80;;
59786;SDS011;45672;51.612;5.536;2023-04-03T08:26:41;6.82;;;1.77;;
59786;SDS011;45672;51.612;5.536;2023-04-03T08:29:06;2.30;;;1.63;;
59786;SDS011;45672;51.612;5.536;2023-04-03T08:31:32;4.85;;;1.63;;
59786;SDS011;45672;51.612;5.536;2023-04-03T08:33:58;2.35;;;1.77;;
59786;SDS011;45672;51.612;5.536;2023-04-03T08:36:25;3.85;;;1.65;;
59786;SDS011;45672;51.612;5.536;2023-04-03T08:38:52;2.10;;;1.50;;
59786;SDS011;45672;51.612;5.536;2023-04-03T08:44:09;3.13;;;1.90;;
59786;SDS011;45672;51.612;5.536;2023-04-03T08:52:12;3.95;;;1.50;;
59786;SDS011;45672;51.612;5.536;2023-04-03T08:54:50;2.67;;;1.60;;
59786;SDS011;45672;51.612;5.536;2023-04-03T09:00:19;3.50;;;1.70;;
59786;SDS011;45672;51.612;5.536;2023-04-03T09:02:48;6.10;;;1.63;;
59786;SDS011;45672;51.612;5.536;2023-04-03T09:08:00;1.67;;;1.10;;
59786;SDS011;45672;51.612;5.536;2023-04-03T09:10:33;2.40;;;1.20;;
59786;SDS011;45672;51.612;5.536;2023-04-03T09:13:05;2.42;;;1.30;;
59786;SDS011;45672;51.612;5.536;2023-04-03T09:15:38;1.33;;;1.13;;
59786;SDS011;45672;51.612;5.536;2023-04-03T09:23:32;1.35;;;1.05;;
59786;SDS011;45672;51.612;5.536;2023-04-03T09:26:06;1.52;;;0.90;;
59786;SDS011;45672;51.612;5.536;2023-04-03T09:28:40;3.25;;;1.02;;
59786;SDS011;45672;51.612;5.536;2023-04-03T09:31:18;2.92;;;0.93;;
59786;SDS011;45672;51.612;5.536;2023-04-03T09:33:59;1.02;;;0.80;;
59786;SDS011;45672;51.612;5.536;2023-04-03T09:36:38;1.98;;;0.95;;
59786;SDS011;45672;51.612;5.536;2023-04-03T09:39:10;1.88;;;0.70;;
59786;SDS011;45672;51.612;5.536;2023-04-03T09:41:41;2.25;;;0.63;;
59786;SDS011;45672;51.612;5.536;2023-04-03T09:44:20;1.17;;;0.93;;
59786;SDS011;45672;51.612;5.536;2023-04-03T09:46:47;7.72;;;0.80;;
59786;SDS011;45672;51.612;5.536;2023-04-03T09:49:13;1.65;;;0.70;;
59786;SDS011;45672;51.612;5.536;2023-04-03T09:51:38;2.75;;;0.60;;
59786;SDS011;45672;51.612;5.536;2023-04-03T09:54:23;1.13;;;0.73;;
59786;SDS011;45672;51.612;5.536;2023-04-03T09:56:49;1.15;;;0.70;;
59786;SDS011;45672;51.612;5.536;2023-04-03T09:59:15;2.15;;;0.80;;
59786;SDS011;45672;51.612;5.536;2023-04-03T10:01:42;1.73;;;0.80;;
59786;SDS011;45672;51.612;5.536;2023-04-03T10:04:21;1.42;;;0.75;;
59786;SDS011;45672;51.612;5.536;2023-04-03T10:14:30;1.08;;;0.70;;
59786;SDS011;45672;51.612;5.536;2023-04-03T10:17:09;0.50;;;0.50;;
59786;SDS011;45672;51.612;5.536;2023-04-03T10:19:54;3.15;;;0.70;;
59786;SDS011;45672;51.612;5.536;2023-04-03T10:25:15;1.58;;;0.80;;
59786;SDS011;45672;51.612;5.536;2023-04-03T10:28:01;0.50;;;0.50;;
59786;SDS011;45672;51.612;5.536;2023-04-03T10:38:24;0.70;;;0.60;;
59786;SDS011;45672;51.612;5.536;2023-04-03T10:41:15;0.65;;;0.65;;
59786;SDS011;45672;51.612;5.536;2023-04-03T10:46:39;0.77;;;0.57;;
59786;SDS011;45672;51.612;5.536;2023-04-03T10:49:23;1.50;;;0.75;;
59786;SDS011;45672;51.612;5.536;2023-04-03T10:52:06;2.15;;;1.10;;
59786;SDS011;45672;51.612;5.536;2023-04-03T10:54:56;3.25;;;1.10;;
59786;SDS011;45672;51.612;5.536;2023-04-03T10:57:31;1.50;;;0.80;;
59786;SDS011;45672;51.612;5.536;2023-04-03T11:00:01;4.57;;;0.80;;
59786;SDS011;45672;51.612;5.536;2023-04-03T11:02:38;0.60;;;0.60;;
59786;SDS011;45672;51.612;5.536;2023-04-03T11:05:18;1.35;;;0.70;;
59786;SDS011;45672;51.612;5.536;2023-04-03T11:07:54;0.90;;;0.90;;
59786;SDS011;45672;51.612;5.536;2023-04-03T11:13:02;3.55;;;0.98;;
59786;SDS011;45672;51.612;5.536;2023-04-03T11:15:37;1.55;;;0.80;;
59786;SDS011;45672;51.612;5.536;2023-04-03T11:18:04;1.55;;;1.00;;
59786;SDS011;45672;51.612;5.536;2023-04-03T11:20:34;2.28;;;1.10;;
59786;SDS011;45672;51.612;5.536;2023-04-03T11:25:34;1.70;;;1.00;;
59786;SDS011;45672;51.612;5.536;2023-04-03T11:28:04;1.20;;;1.15;;
59786;SDS011;45672;51.612;5.536;2023-04-03T11:35:55;3.38;;;1.00;;
59786;SDS011;45672;51.612;5.536;2023-04-03T11:38:24;1.45;;;1.02;;
59786;SDS011;45672;51.612;5.536;2023-04-03T11:41:04;2.83;;;1.10;;
59786;SDS011;45672;51.612;5.536;2023-04-03T11:43:32;2.08;;;1.00;;
59786;SDS011;45672;51.612;5.536;2023-04-03T11:45:59;1.75;;;0.82;;
59786;SDS011;45672;51.612;5.536;2023-04-03T11:50:53;0.80;;;0.80;;
59786;SDS011;45672;51.612;5.536;2023-04-03T11:56:04;0.90;;;0.90;;
59786;SDS011;45672;51.612;5.536;2023-04-03T12:01:43;1.35;;;1.00;;
59786;SDS011;45672;51.612;5.536;2023-04-03T12:04:19;5.78;;;1.33;;
59786;SDS011;45672;51.612;5.536;2023-04-03T12:10:13;2.05;;;1.10;;
59786;SDS011;45672;51.612;5.536;2023-04-03T12:14:52;0.98;;;0.98;;
59786;SDS011;45672;51.612;5.536;2023-04-03T12:17:20;8.77;;;1.30;;
59786;SDS011;45672;51.612;5.536;2023-04-03T12:19:52;1.77;;;1.20;;
59786;SDS011;45672;51.612;5.536;2023-04-03T12:22:18;2.00;;;0.80;;
59786;SDS011;45672;51.612;5.536;2023-04-03T12:24:46;2.33;;;1.10;;
59786;SDS011;45672;51.612;5.536;2023-04-03T12:27:39;1.38;;;1.08;;
59786;SDS011;45672;51.612;5.536;2023-04-03T12:30:24;2.40;;;1.30;;
59786;SDS011;45672;51.612;5.536;2023-04-03T12:32:56;1.38;;;1.17;;
59786;SDS011;45672;51.612;5.536;2023-04-03T12:35:47;1.13;;;1.02;;
59786;SDS011;45672;51.612;5.536;2023-04-03T12:38:45;0.98;;;0.90;;
59786;SDS011;45672;51.612;5.536;2023-04-03T12:41:36;1.15;;;1.10;;
59786;SDS011;45672;51.612;5.536;2023-04-03T12:47:33;0.95;;;0.95;;
59786;SDS011;45672;51.612;5.536;2023-04-03T12:50:02;2.45;;;1.10;;
59786;SDS011;45672;51.612;5.536;2023-04-03T12:52:37;3.22;;;1.20;;
59786;SDS011;45672;51.612;5.536;2023-04-03T12:55:18;2.22;;;1.20;;
59786;SDS011;45672;51.612;5.536;2023-04-03T12:57:46;1.73;;;1.40;;
59786;SDS011;45672;51.612;5.536;2023-04-03T13:00:31;2.15;;;1.33;;
59786;SDS011;45672;51.612;5.536;2023-04-03T13:02:59;3.00;;;1.17;;
59786;SDS011;45672;51.612;5.536;2023-04-03T13:05:26;1.45;;;1.10;;
59786;SDS011;45672;51.612;5.536;2023-04-03T13:07:58;1.33;;;1.23;;
59786;SDS011;45672;51.612;5.536;2023-04-03T13:10:27;1.90;;;1.27;;
59786;SDS011;45672;51.612;5.536;2023-04-03T13:12:57;2.28;;;1.30;;
59786;SDS011;45672;51.612;5.536;2023-04-03T13:15:40;2.33;;;1.20;;
59786;SDS011;45672;51.612;5.536;2023-04-03T13:21:13;2.15;;;1.27;;
59786;SDS011;45672;51.612;5.536;2023-04-03T13:23:43;1.40;;;1.30;;
59786;SDS011;45672;51.612;5.536;2023-04-03T13:26:11;2.97;;;1.42;;
59786;SDS011;45672;51.612;5.536;2023-04-03T13:28:41;2.42;;;1.50;;
59786;SDS011;45672;51.612;5.536;2023-04-03T13:31:09;1.63;;;1.40;;
59786;SDS011;45672;51.612;5.536;2023-04-03T13:33:55;1.10;;;1.08;;
59786;SDS011;45672;51.612;5.536;2023-04-03T13:36:31;2.97;;;1.17;;
59786;SDS011;45672;51.612;5.536;2023-04-03T13:41:36;1.83;;;1.15;;
59786;SDS011;45672;51.612;5.536;2023-04-03T13:46:54;1.27;;;1.17;;
59786;SDS011;45672;51.612;5.536;2023-04-03T13:51:47;4.47;;;1.70;;
59786;SDS011;45672;51.612;5.536;2023-04-03T13:56:52;1.77;;;1.40;;
59786;SDS011;45672;51.612;5.536;2023-04-03T13:59:34;1.40;;;1.30;;
59786;SDS011;45672;51.612;5.536;2023-04-03T14:04:30;2.78;;;1.23;;
59786;SDS011;45672;51.612;5.536;2023-04-03T14:06:57;3.53;;;1.50;;
59786;SDS011;45672;51.612;5.536;2023-04-03T14:09:24;4.93;;;1.50;;
59786;SDS011;45672;51.612;5.536;2023-04-03T14:11:53;1.67;;;1.25;;
59786;SDS011;45672;51.612;5.536;2023-04-03T14:14:29;3.13;;;1.73;;
59786;SDS011;45672;51.612;5.536;2023-04-03T14:16:57;2.45;;;1.50;;
59786;SDS011;45672;51.612;5.536;2023-04-03T14:19:26;2.33;;;1.30;;
59786;SDS011;45672;51.612;5.536;2023-04-03T14:21:54;3.55;;;1.80;;
59786;SDS011;45672;51.612;5.536;2023-04-03T14:24:21;1.50;;;1.20;;
59786;SDS011;45672;51.612;5.536;2023-04-03T14:26:47;3.10;;;1.20;;
59786;SDS011;45672;51.612;5.536;2023-04-03T14:29:14;2.75;;;1.80;;
59786;SDS011;45672;51.612;5.536;2023-04-03T14:31:41;5.53;;;1.70;;
59786;SDS011;45672;51.612;5.536;2023-04-03T14:34:09;2.08;;;1.40;;
59786;SDS011;45672;51.612;5.536;2023-04-03T14:36:36;3.25;;;1.65;;
59786;SDS011;45672;51.612;5.536;2023-04-03T14:39:03;2.17;;;1.60;;
59786;SDS011;45672;51.612;5.536;2023-04-03T14:41:29;2.28;;;1.30;;
59786;SDS011;45672;51.612;5.536;2023-04-03T14:43:55;7.03;;;1.52;;
59786;SDS011;45672;51.612;5.536;2023-04-03T14:46:28;3.63;;;1.30;;
59786;SDS011;45672;51.612;5.536;2023-04-03T14:48:56;1.92;;;1.42;;
59786;SDS011;45672;51.612;5.536;2023-04-03T14:51:21;2.95;;;1.38;;
59786;SDS011;45672;51.612;5.536;2023-04-03T14:53:47;2.28;;;1.42;;
59786;SDS011;45672;51.612;5.536;2023-04-03T14:56:14;2.60;;;1.48;;
59786;SDS011;45672;51.612;5.536;2023-04-03T14:58:42;4.18;;;1.70;;
59786;SDS011;45672;51.612;5.536;2023-04-03T15:01:09;2.72;;;1.65;;
59786;SDS011;45672;51.612;5.536;2023-04-03T15:03:36;1.10;;;1.00;;
59786;SDS011;45672;51.612;5.536;2023-04-03T15:06:02;1.20;;;1.10;;
59786;SDS011;45672;51.612;5.536;2023-04-03T15:08:28;2.90;;;1.50;;
59786;SDS011;45672;51.612;5.536;2023-04-03T15:10:54;3.83;;;1.40;;
59786;SDS011;45672;51.612;5.536;2023-04-03T15:13:21;1.58;;;1.23;;
59786;SDS011;45672;51.612;5.536;2023-04-03T15:15:47;1.67;;;1.33;;
59786;SDS011;45672;51.612;5.536;2023-04-03T15:18:15;3.80;;;1.85;;
59786;SDS011;45672;51.612;5.536;2023-04-03T15:20:43;2.05;;;1.30;;
59786;SDS011;45672;51.612;5.536;2023-04-03T15:23:10;2.55;;;1.80;;
59786;SDS011;45672;51.612;5.536;2023-04-03T15:25:37;2.10;;;1.83;;
59786;SDS011;45672;51.612;5.536;2023-04-03T15:28:02;1.77;;;1.40;;
59786;SDS011;45672;51.612;5.536;2023-04-03T15:30:28;2.28;;;1.63;;
59786;SDS011;45672;51.612;5.536;2023-04-03T15:32:53;3.22;;;1.67;;
59786;SDS011;45672;51.612;5.536;2023-04-03T15:35:18;9.23;;;1.55;;
59786;SDS011;45672;51.612;5.536;2023-04-03T15:37:44;1.60;;;1.50;;
59786;SDS011;45672;51.612;5.536;2023-04-03T15:40:10;7.30;;;1.45;;
59786;SDS011;45672;51.612;5.536;2023-04-03T15:42:35;4.63;;;2.05;;
59786;SDS011;45672;51.612;5.536;2023-04-03T15:45:01;3.10;;;1.73;;
59786;SDS011;45672;51.612;5.536;2023-04-03T15:47:26;6.45;;;1.40;;
59786;SDS011;45672;51.612;5.536;2023-04-03T15:49:53;2.45;;;1.23;;
59786;SDS011;45672;51.612;5.536;2023-04-03T15:52:19;6.40;;;1.80;;
59786;SDS011;45672;51.612;5.536;2023-04-03T15:54:45;3.83;;;1.75;;
59786;SDS011;45672;51.612;5.536;2023-04-03T15:57:10;4.18;;;1.80;;
59786;SDS011;45672;51.612;5.536;2023-04-03T15:59:35;2.35;;;1.48;;
59786;SDS011;45672;51.612;5.536;2023-04-03T16:02:01;3.35;;;1.60;;
59786;SDS011;45672;51.612;5.536;2023-04-03T16:04:30;2.70;;;2.03;;
59786;SDS011;45672;51.612;5.536;2023-04-03T16:06:55;2.70;;;1.90;;
59786;SDS011;45672;51.612;5.536;2023-04-03T16:09:21;1.52;;;1.42;;
59786;SDS011;45672;51.612;5.536;2023-04-03T16:11:46;4.63;;;1.90;;
59786;SDS011;45672;51.612;5.536;2023-04-03T16:14:12;3.28;;;1.73;;
59786;SDS011;45672;51.612;5.536;2023-04-03T16:16:37;4.75;;;1.60;;
59786;SDS011;45672;51.612;5.536;2023-04-03T16:19:03;4.53;;;1.60;;
59786;SDS011;45672;51.612;5.536;2023-04-03T16:21:29;3.20;;;1.38;;
59786;SDS011;45672;51.612;5.536;2023-04-03T16:23:59;6.00;;;1.90;;
59786;SDS011;45672;51.612;5.536;2023-04-03T16:26:25;4.05;;;1.70;;
59786;SDS011;45672;51.612;5.536;2023-04-03T16:28:51;3.95;;;1.55;;
59786;SDS011;45672;51.612;5.536;2023-04-03T16:31:17;3.35;;;1.63;;